Time;durP1;ratioP1;P1;durP2;ratioP2;P2;SDS_P1;SDS_P2;PMS_P1;PMS_P2;Temp;Humidity;BMP_temperature;BMP_pressure;BME280_temperature;BME280_humidity;BME280_pressure;Samples;Min_cycle;Max_cycle;Signal;HPM_P1;HPM_P2
2022/12/12 00:00:29;;;;;;;18.45;13.63;;;8.00;82.80;;;;;;5052555;28;20481;-69
2022/12/12 00:02:56;;;;;;;18.67;12.98;;;8.20;81.90;;;;;;5054026;28;20021;-69
2022/12/12 00:05:22;;;;;;;18.42;13.38;;;8.20;81.20;;;;;;5054331;28;20025;-69
2022/12/12 00:07:48;;;;;;;18.80;13.30;;;8.20;81.30;;;;;;5054406;28;20458;-69
2022/12/12 00:10:13;;;;;;;17.88;13.27;;;8.10;81.50;;;;;;5052397;28;20021;-69
2022/12/12 00:12:39;;;;;;;21.65;14.80;;;8.00;81.80;;;;;;5052963;28;20044;-69
2022/12/12 00:15:06;;;;;;;17.92;13.10;;;7.90;82.00;;;;;;5053830;28;20033;-69
2022/12/12 00:17:31;;;;;;;21.17;14.27;;;7.90;81.80;;;;;;5052887;28;20528;-69
2022/12/12 00:19:57;;;;;;;20.92;13.68;;;7.90;81.90;;;;;;5052866;28;20037;-69
2022/12/12 00:22:22;;;;;;;21.52;13.82;;;7.90;82.20;;;;;;5053044;28;20025;-69
2022/12/12 00:24:48;;;;;;;20.98;14.02;;;7.80;82.40;;;;;;5053908;28;20454;-69
2022/12/12 00:27:14;;;;;;;19.45;13.40;;;7.80;82.30;;;;;;5054172;28;20025;-69
2022/12/12 00:29:40;;;;;;;22.23;13.00;;;7.80;82.40;;;;;;5054368;28;20013;-69
2022/12/12 00:32:05;;;;;;;21.02;14.43;;;7.70;82.60;;;;;;5053835;28;20047;-69
2022/12/12 00:34:31;;;;;;;19.55;14.02;;;7.60;82.70;;;;;;5054037;28;20144;-69
2022/12/12 00:36:56;;;;;;;19.02;13.40;;;7.60;82.80;;;;;;5050593;28;20079;-70
2022/12/12 00:39:22;;;;;;;22.67;14.50;;;7.60;83.20;;;;;;5052349;28;20508;-69
2022/12/12 00:41:48;;;;;;;21.48;14.95;;;7.50;83.80;;;;;;5051995;28;20557;-69
2022/12/12 00:44:14;;;;;;;20.88;13.68;;;7.50;83.10;;;;;;5052616;28;20033;-69
2022/12/12 00:46:39;;;;;;;20.77;14.05;;;7.50;83.10;;;;;;5051487;28;20017;-69
2022/12/12 00:49:05;;;;;;;18.63;13.75;;;7.40;83.70;;;;;;5052269;28;20025;-69
2022/12/12 00:51:30;;;;;;;19.20;12.95;;;7.40;83.50;;;;;;5050773;28;20017;-69
2022/12/12 00:53:57;;;;;;;23.45;14.88;;;7.50;83.70;;;;;;5053464;28;20063;-69
2022/12/12 00:56:24;;;;;;;21.27;14.52;;;7.40;83.60;;;;;;5053318;28;20025;-69
2022/12/12 00:58:51;;;;;;;20.73;14.30;;;7.40;83.70;;;;;;5053099;28;20059;-69
2022/12/12 01:01:24;;;;;;;20.70;15.07;;;7.40;83.60;;;;;;5053476;28;20029;-69
2022/12/12 01:03:50;;;;;;;21.05;15.02;;;7.30;83.70;;;;;;5053143;28;20025;-69
2022/12/12 01:06:16;;;;;;;23.13;15.63;;;7.40;83.50;;;;;;5053081;28;20044;-69
2022/12/12 01:08:42;;;;;;;23.73;15.10;;;7.40;83.40;;;;;;5053273;28;20478;-69
2022/12/12 01:11:10;;;;;;;22.77;14.70;;;7.40;83.50;;;;;;5052647;28;20485;-69
2022/12/12 01:13:36;;;;;;;21.40;15.00;;;7.30;83.80;;;;;;5052401;28;20485;-69
2022/12/12 01:16:04;;;;;;;21.90;14.32;;;7.40;83.80;;;;;;5053020;28;20040;-69
2022/12/12 01:18:29;;;;;;;23.40;16.08;;;7.30;84.00;;;;;;5053258;28;20064;-69
2022/12/12 01:20:55;;;;;;;21.80;15.70;;;7.30;83.70;;;;;;5053182;28;20052;-69
2022/12/12 01:23:21;;;;;;;24.45;14.98;;;7.20;83.80;;;;;;5052650;28;20029;-69
2022/12/12 01:25:46;;;;;;;21.98;15.68;;;7.20;83.80;;;;;;5052754;28;20017;-69
2022/12/12 01:28:12;;;;;;;22.15;14.65;;;7.20;83.80;;;;;;5052840;28;20099;-69
2022/12/12 01:30:38;;;;;;;25.75;16.60;;;7.20;83.60;;;;;;5052391;28;20071;-69
2022/12/12 01:33:03;;;;;;;24.15;15.95;;;7.20;83.70;;;;;;5052963;28;20021;-69
2022/12/12 01:35:30;;;;;;;21.90;14.70;;;7.20;83.60;;;;;;5052935;28;20367;-69
2022/12/12 01:37:56;;;;;;;20.88;14.45;;;7.20;83.70;;;;;;5052322;28;20047;-69
2022/12/12 01:40:24;;;;;;;20.02;14.55;;;7.20;83.80;;;;;;5052855;28;20071;-69
2022/12/12 01:42:50;;;;;;;22.88;14.65;;;7.10;84.00;;;;;;5052472;28;20060;-69
2022/12/12 01:45:53;;;;;;;22.13;15.75;;;7.00;84.10;;;;;;5052602;28;20064;-69
2022/12/12 01:48:21;;;;;;;18.15;13.98;;;7.00;84.20;;;;;;5049797;28;20020;-70
2022/12/12 01:50:47;;;;;;;27.35;18.40;;;7.00;84.00;;;;;;5052636;28;20033;-69
2022/12/12 01:53:16;;;;;;;25.33;17.13;;;7.00;84.20;;;;;;5052733;28;20029;-70
2022/12/12 01:55:42;;;;;;;21.83;15.73;;;7.00;84.20;;;;;;5051539;28;20025;-70
2022/12/12 01:58:08;;;;;;;23.05;16.30;;;7.00;84.10;;;;;;5052279;28;20028;-69
2022/12/12 02:00:34;;;;;;;20.02;15.05;;;7.00;84.20;;;;;;5052866;28;20099;-69
2022/12/12 02:02:59;;;;;;;22.38;15.35;;;7.00;84.30;;;;;;5052481;28;20025;-70
2022/12/12 02:05:42;;;;;;;21.30;15.18;;;6.90;84.40;;;;;;5052631;28;20096;-70
2022/12/12 02:08:09;;;;;;;21.63;15.30;;;6.90;84.40;;;;;;5052618;28;20385;-69
2022/12/12 02:10:35;;;;;;;20.73;14.73;;;7.00;84.20;;;;;;5052661;28;20078;-69
2022/12/12 02:13:07;;;;;;;23.42;15.02;;;7.00;84.10;;;;;;5052006;28;20037;-70
2022/12/12 02:15:43;;;;;;;20.60;14.15;;;7.00;84.20;;;;;;5052697;28;20079;-69
2022/12/12 02:18:29;;;;;;;22.42;15.73;;;6.90;84.20;;;;;;5052530;28;20053;-69
2022/12/12 02:21:30;;;;;;;21.25;14.30;;;6.90;84.40;;;;;;5053104;28;20473;-69
2022/12/12 02:24:28;;;;;;;21.20;14.80;;;6.90;84.60;;;;;;5056076;28;20355;-69
2022/12/12 02:27:23;;;;;;;24.60;14.98;;;6.90;84.40;;;;;;5056416;28;20036;-70
2022/12/12 02:30:11;;;;;;;23.15;15.55;;;6.80;84.50;;;;;;5056530;28;20045;-70
2022/12/12 02:32:47;;;;;;;22.48;15.05;;;6.80;84.50;;;;;;5056106;28;20100;-70
2022/12/12 02:35:28;;;;;;;21.95;15.45;;;6.90;84.40;;;;;;5056422;28;20025;-70
2022/12/12 02:38:05;;;;;;;20.85;14.57;;;6.90;84.30;;;;;;5055876;28;20371;-69
2022/12/12 02:40:40;;;;;;;21.58;14.80;;;6.90;84.00;;;;;;5055814;28;20573;-70
2022/12/12 02:43:33;;;;;;;20.45;14.18;;;6.80;84.10;;;;;;5054666;28;20040;-70
2022/12/12 02:46:06;;;;;;;19.33;14.02;;;6.80;84.30;;;;;;5056221;28;20386;-70
2022/12/12 02:48:48;;;;;;;22.92;15.60;;;6.80;84.20;;;;;;5055834;28;20110;-70
2022/12/12 02:51:15;;;;;;;21.63;14.63;;;6.70;84.50;;;;;;5056092;28;20056;-70
2022/12/12 02:53:41;;;;;;;20.08;14.88;;;6.80;84.20;;;;;;5055692;28;20267;-70
2022/12/12 02:56:45;;;;;;;20.70;14.48;;;6.60;84.30;;;;;;5056056;28;20067;-70
2022/12/12 02:59:20;;;;;;;20.92;14.05;;;6.50;84.70;;;;;;5055615;28;20070;-70
2022/12/12 03:02:26;;;;;;;23.17;15.00;;;6.50;84.60;;;;;;5055749;28;20044;-70
2022/12/12 03:08:03;;;;;;;20.80;14.10;;;6.60;84.20;;;;;;5055800;28;20040;-70
2022/12/12 03:10:47;;;;;;;21.42;13.65;;;6.60;84.10;;;;;;5055147;28;20052;-70
2022/12/12 03:13:37;;;;;;;21.17;13.80;;;6.70;83.90;;;;;;5055559;28;20060;-70
2022/12/12 03:16:22;;;;;;;18.88;14.00;;;6.50;84.10;;;;;;5055483;28;20033;-69
2022/12/12 03:19:03;;;;;;;20.73;13.18;;;6.70;84.50;;;;;;5055427;28;20469;-70
2022/12/12 03:21:47;;;;;;;20.77;14.13;;;6.60;83.60;;;;;;5055416;28;20067;-70
2022/12/12 03:24:31;;;;;;;19.88;14.02;;;6.60;83.80;;;;;;5054898;28;20263;-70
2022/12/12 03:27:29;;;;;;;22.15;14.57;;;6.60;83.90;;;;;;5055458;28;20385;-70
2022/12/12 03:30:29;;;;;;;18.95;13.82;;;6.50;84.20;;;;;;5041836;28;20041;-70
2022/12/12 03:33:13;;;;;;;19.98;12.95;;;6.50;83.90;;;;;;5020194;28;20513;-70
2022/12/12 03:35:45;;;;;;;19.48;13.35;;;6.50;83.70;;;;;;5055041;28;20113;-70
2022/12/12 03:38:17;;;;;;;19.08;13.75;;;6.60;83.70;;;;;;5055092;28;20028;-70
2022/12/12 03:40:48;;;;;;;19.33;13.30;;;6.60;83.70;;;;;;5054658;28;20028;-71
2022/12/12 03:43:23;;;;;;;19.90;13.93;;;6.50;83.70;;;;;;5055153;28;20473;-70
2022/12/12 03:46:12;;;;;;;17.67;13.18;;;6.40;83.80;;;;;;5054952;28;20021;-70
2022/12/12 03:49:00;;;;;;;19.73;13.52;;;6.30;84.10;;;;;;5054954;28;20033;-70
2022/12/12 03:51:31;;;;;;;18.27;13.23;;;6.30;84.10;;;;;;5054729;28;20031;-70
2022/12/12 03:54:19;;;;;;;20.48;14.32;;;6.40;83.80;;;;;;5054519;28;20021;-70
2022/12/12 03:57:12;;;;;;;16.80;12.52;;;6.50;83.60;;;;;;5054837;28;20466;-70
2022/12/12 03:59:42;;;;;;;;;;;6.40;83.60;;;;;;5054901;28;20165;-70
2022/12/12 04:02:38;;;;;;;19.42;12.93;;;6.40;84.00;;;;;;5054845;28;19974;-70
2022/12/12 04:05:12;;;;;;;19.65;13.43;;;6.30;84.00;;;;;;5054661;28;20096;-70
2022/12/12 04:07:45;;;;;;;16.90;12.55;;;6.10;84.60;;;;;;5053007;28;20017;-70
2022/12/12 04:13:10;;;;;;;18.00;13.43;;;6.00;84.80;;;;;;5054444;28;20512;-71
2022/12/12 04:15:55;;;;;;;20.00;13.55;;;6.00;84.90;;;;;;5054425;28;20031;-70
2022/12/12 04:18:32;;;;;;;16.83;12.15;;;6.20;84.20;;;;;;5054508;28;20096;-70
2022/12/12 04:24:28;;;;;;;18.77;12.93;;;6.00;84.80;;;;;;5054234;28;20040;-71
2022/12/12 04:27:07;;;;;;;18.77;13.32;;;6.00;84.70;;;;;;5053964;28;20033;-70
2022/12/12 04:29:44;;;;;;;17.45;13.35;;;6.00;84.40;;;;;;5054491;28;20017;-70
2022/12/12 04:32:25;;;;;;;18.02;13.20;;;5.90;84.80;;;;;;5054203;28;20029;-70
2022/12/12 04:35:06;;;;;;;21.25;14.35;;;5.90;85.00;;;;;;5052626;28;20071;-71
2022/12/12 04:37:37;;;;;;;19.50;12.75;;;5.80;85.20;;;;;;5054054;28;20024;-71
2022/12/12 04:40:07;;;;;;;18.15;13.13;;;5.90;84.80;;;;;;5053870;28;20032;-70
2022/12/12 04:42:39;;;;;;;17.02;12.70;;;5.90;84.90;;;;;;5044605;28;20021;-70
2022/12/12 04:45:15;;;;;;;18.50;12.88;;;5.90;84.70;;;;;;5033555;28;20037;-71
2022/12/12 04:47:43;;;;;;;18.95;13.75;;;5.90;84.90;;;;;;5030163;28;20033;-71
2022/12/12 04:50:10;;;;;;;18.25;13.55;;;6.00;84.60;;;;;;5033567;28;20021;-71
2022/12/12 04:52:38;;;;;;;21.52;14.90;;;5.80;85.00;;;;;;5032491;28;20113;-70
2022/12/12 04:55:09;;;;;;;19.55;13.18;;;5.80;84.90;;;;;;5033877;28;20017;-70
2022/12/12 04:57:48;;;;;;;17.83;13.63;;;5.80;85.60;;;;;;5033453;28;20053;-70
2022/12/12 05:00:14;;;;;;;18.63;13.38;;;5.80;84.80;;;;;;5032446;28;20041;-70
2022/12/12 05:02:56;;;;;;;18.48;13.25;;;5.80;84.80;;;;;;5033548;28;20021;-70
2022/12/12 05:05:38;;;;;;;16.67;12.20;;;5.70;85.10;;;;;;5033415;28;20390;-71
2022/12/12 05:08:28;;;;;;;17.90;12.60;;;5.70;84.80;;;;;;5033350;28;20075;-71
2022/12/12 05:10:56;;;;;;;18.42;13.00;;;5.70;84.90;;;;;;5033441;28;20064;-71
2022/12/12 05:13:28;;;;;;;18.52;12.38;;;5.70;84.80;;;;;;5033612;28;20030;-71
2022/12/12 05:15:56;;;;;;;19.52;12.93;;;5.70;85.00;;;;;;5033403;28;20045;-71
2022/12/12 05:18:22;;;;;;;17.75;13.23;;;5.60;85.20;;;;;;5033282;28;20036;-71
2022/12/12 05:20:48;;;;;;;20.20;12.95;;;5.70;85.00;;;;;;5032888;28;20025;-71
2022/12/12 05:23:14;;;;;;;20.15;13.57;;;5.80;84.70;;;;;;5033407;28;20018;-71
2022/12/12 05:25:40;;;;;;;19.42;13.68;;;5.70;84.40;;;;;;5033137;28;20029;-71
2022/12/12 05:28:06;;;;;;;19.30;13.68;;;5.80;84.50;;;;;;5033141;28;20018;-70
2022/12/12 05:30:32;;;;;;;19.50;12.93;;;5.80;84.50;;;;;;5033028;28;20095;-69
2022/12/12 05:32:58;;;;;;;22.05;13.98;;;5.70;84.70;;;;;;5032938;28;20036;-71
2022/12/12 05:35:24;;;;;;;20.98;14.25;;;5.70;84.70;;;;;;5032778;28;20025;-70
2022/12/12 05:37:49;;;;;;;19.60;13.35;;;5.70;84.60;;;;;;5033124;28;20083;-70
2022/12/12 05:40:15;;;;;;;20.40;13.55;;;5.70;84.70;;;;;;5033027;28;20048;-70
2022/12/12 05:42:41;;;;;;;17.90;12.52;;;5.50;85.00;;;;;;5031456;28;20041;-70
2022/12/12 05:45:08;;;;;;;18.02;12.93;;;5.50;85.20;;;;;;5033172;28;20072;-70
2022/12/12 05:47:34;;;;;;;17.52;13.35;;;5.50;85.10;;;;;;5032868;28;20021;-71
2022/12/12 05:50:00;;;;;;;21.42;13.82;;;5.30;85.60;;;;;;5032618;28;20018;-71
2022/12/12 05:52:26;;;;;;;18.50;13.48;;;5.40;85.30;;;;;;5042447;28;20017;-71
2022/12/12 05:54:52;;;;;;;27.33;15.23;;;5.50;85.10;;;;;;5048953;28;20021;-69
2022/12/12 05:57:18;;;;;;;20.65;13.57;;;5.60;84.40;;;;;;5050961;28;20029;-71
2022/12/12 05:59:45;;;;;;;17.15;13.13;;;5.80;84.50;;;;;;5051344;28;20036;-71
2022/12/12 06:02:12;;;;;;;21.08;13.68;;;5.70;84.90;;;;;;5044154;28;20032;-70
2022/12/12 06:04:38;;;;;;;20.13;13.07;;;5.80;84.70;;;;;;5050352;28;20052;-70
2022/12/12 06:07:04;;;;;;;20.88;13.30;;;5.90;84.40;;;;;;5049367;28;20033;-70
2022/12/12 06:09:29;;;;;;;18.30;13.27;;;6.00;83.60;;;;;;5050469;28;20033;-71
2022/12/12 06:11:55;;;;;;;17.65;13.20;;;5.90;83.80;;;;;;5046215;28;20027;-70
2022/12/12 06:14:20;;;;;;;22.00;13.88;;;5.80;84.40;;;;;;5052216;28;20543;-70
2022/12/12 06:16:46;;;;;;;22.27;13.93;;;5.90;84.40;;;;;;5052397;28;20067;-70
2022/12/12 06:19:12;;;;;;;20.75;13.30;;;5.90;84.20;;;;;;5052132;28;20041;-70
2022/12/12 06:21:37;;;;;;;19.35;13.23;;;5.90;84.20;;;;;;5052761;28;20021;-67
2022/12/12 06:24:06;;;;;;;25.75;14.35;;;6.00;84.00;;;;;;5052347;28;20021;-69
2022/12/12 06:26:32;;;;;;;17.88;12.85;;;6.00;83.70;;;;;;5052498;28;20452;-70
2022/12/12 06:28:58;;;;;;;19.70;12.35;;;6.00;83.80;;;;;;5052360;28;20104;-70
2022/12/12 06:31:23;;;;;;;17.90;13.13;;;6.10;83.60;;;;;;5047376;28;20025;-70
2022/12/12 06:33:49;;;;;;;21.20;14.82;;;6.10;82.90;;;;;;5041860;28;20029;-68
2022/12/12 06:36:22;;;;;;;18.77;14.10;;;6.00;83.10;;;;;;5049444;28;20029;-68
2022/12/12 06:38:52;;;;;;;21.75;14.02;;;5.90;83.50;;;;;;5050976;28;20037;-68
2022/12/12 06:41:18;;;;;;;22.13;13.68;;;5.70;83.80;;;;;;5052159;28;20053;-68
2022/12/12 06:43:44;;;;;;;22.10;14.55;;;5.60;84.20;;;;;;5046297;28;20060;-67
2022/12/12 06:46:17;;;;;;;20.42;14.13;;;5.50;84.40;;;;;;5049273;28;20024;-67
2022/12/12 06:48:43;;;;;;;19.80;13.30;;;5.40;84.60;;;;;;5050742;28;20534;-68
2022/12/12 06:51:13;;;;;;;19.73;14.68;;;5.60;84.90;;;;;;5046489;28;20029;-67
2022/12/12 06:53:38;;;;;;;19.88;11.00;;;5.60;84.20;;;;;;5049588;28;20029;-67
2022/12/12 06:56:10;;;;;;;15.82;10.43;;;6.00;89.80;;;;;;5043500;28;20075;-67
2022/12/12 06:58:36;;;;;;;18.55;11.05;;;6.90;86.90;;;;;;5043244;28;20033;-68
2022/12/12 07:01:02;;;;;;;15.73;10.48;;;7.30;85.10;;;;;;5045983;28;20037;-67
2022/12/12 07:03:28;;;;;;;19.75;12.02;;;7.60;84.20;;;;;;5044226;28;20027;-67
2022/12/12 07:05:53;;;;;;;23.38;12.23;;;7.50;82.10;;;;;;5038278;28;20029;-67
2022/12/12 07:08:19;;;;;;;18.67;11.75;;;6.80;83.70;;;;;;5050744;28;20017;-68
2022/12/12 07:10:44;;;;;;;20.02;11.98;;;6.80;84.70;;;;;;5047836;28;20521;-68
2022/12/12 07:13:10;;;;;;;15.73;11.73;;;6.70;84.40;;;;;;5052686;28;20029;-68
2022/12/12 07:15:43;;;;;;;18.27;12.63;;;7.00;84.10;;;;;;5050439;28;20033;-68
2022/12/12 07:18:09;;;;;;;17.50;11.23;;;7.00;83.80;;;;;;5054322;28;20029;-68
2022/12/12 07:20:40;;;;;;;20.02;11.98;;;6.90;84.40;;;;;;5053272;28;20029;-68
2022/12/12 07:23:07;;;;;;;17.30;12.32;;;7.00;83.80;;;;;;5055094;28;20031;-68
2022/12/12 07:25:33;;;;;;;18.52;12.52;;;7.20;83.90;;;;;;5053940;28;20028;-68
2022/12/12 07:27:58;;;;;;;19.20;13.40;;;7.00;83.50;;;;;;5053722;28;20091;-68
2022/12/12 07:30:24;;;;;;;22.83;14.43;;;6.90;83.70;;;;;;5054780;28;20021;-68
2022/12/12 07:32:52;;;;;;;16.73;11.48;;;6.80;83.70;;;;;;5054435;28;20032;-68
2022/12/12 07:35:18;;;;;;;20.15;13.40;;;7.30;84.30;;;;;;5054949;28;20009;-68
2022/12/12 07:37:43;;;;;;;21.58;12.68;;;6.90;83.10;;;;;;5055256;28;20355;-68
2022/12/12 07:40:09;;;;;;;17.27;12.55;;;6.90;83.00;;;;;;5054589;28;20436;-68
2022/12/12 07:42:34;;;;;;;16.85;12.05;;;6.90;82.70;;;;;;5054627;28;20462;-68
2022/12/12 07:45:00;;;;;;;19.67;12.90;;;6.80;83.10;;;;;;5054552;28;20028;-68
2022/12/12 07:47:26;;;;;;;17.42;12.02;;;6.70;83.50;;;;;;5055092;28;20055;-68
2022/12/12 07:49:53;;;;;;;17.05;11.30;;;6.80;83.10;;;;;;5054618;28;20131;-68
2022/12/12 07:52:18;;;;;;;17.38;12.30;;;6.60;83.10;;;;;;5054961;28;20433;-69
2022/12/12 07:54:44;;;;;;;16.67;11.65;;;6.70;83.10;;;;;;5054806;28;20028;-68
2022/12/12 07:57:09;;;;;;;17.83;12.30;;;6.70;83.00;;;;;;5054648;28;20021;-68
2022/12/12 07:59:35;;;;;;;17.40;12.00;;;6.70;82.80;;;;;;5054359;28;20036;-68
2022/12/12 08:02:00;;;;;;;19.35;13.05;;;6.80;82.80;;;;;;5054499;28;20048;-68
2022/12/12 08:04:26;;;;;;;18.45;12.43;;;7.00;82.60;;;;;;5054791;28;20033;-68
2022/12/12 08:06:52;;;;;;;21.90;13.48;;;6.90;82.40;;;;;;5054596;28;20080;-68
2022/12/12 08:09:17;;;;;;;21.10;12.40;;;7.10;82.60;;;;;;5054692;28;20028;-68
2022/12/12 08:11:43;;;;;;;18.63;11.98;;;7.10;82.20;;;;;;5054021;28;20025;-68
2022/12/12 08:14:08;;;;;;;18.85;11.95;;;7.10;82.40;;;;;;5054248;28;20041;-68
2022/12/12 08:16:34;;;;;;;15.07;11.15;;;7.10;81.80;;;;;;5054420;28;20021;-68
2022/12/12 08:18:59;;;;;;;17.70;11.35;;;7.20;81.90;;;;;;5053963;28;20071;-68
2022/12/12 08:21:26;;;;;;;18.77;11.52;;;7.60;82.00;;;;;;5053039;28;20094;-68
2022/12/12 08:23:56;;;;;;;16.08;10.20;;;7.30;81.90;;;;;;5054190;28;20036;-68
2022/12/12 08:26:21;;;;;;;18.25;11.60;;;7.60;81.60;;;;;;5054225;28;20074;-68
2022/12/12 08:28:50;;;;;;;15.90;11.35;;;7.50;81.10;;;;;;5053953;28;20096;-68
2022/12/12 08:31:17;;;;;;;21.00;12.70;;;7.50;81.50;;;;;;5053985;28;20159;-68
2022/12/12 08:33:42;;;;;;;18.10;11.90;;;7.30;81.20;;;;;;5054305;28;20020;-68
2022/12/12 08:36:16;;;;;;;15.95;11.27;;;7.20;81.70;;;;;;5054037;28;20385;-68
2022/12/12 08:38:43;;;;;;;15.95;11.43;;;7.10;81.80;;;;;;5053978;28;20040;-68
2022/12/12 08:41:10;;;;;;;17.38;10.93;;;7.10;81.80;;;;;;5054032;28;20432;-68
2022/12/12 08:43:37;;;;;;;18.40;12.02;;;7.10;81.80;;;;;;5053976;28;20385;-68
2022/12/12 08:46:03;;;;;;;15.93;11.10;;;7.10;81.70;;;;;;5053908;28;20033;-68
2022/12/12 08:48:32;;;;;;;15.10;10.13;;;7.10;81.70;;;;;;5052516;28;20059;-68
2022/12/12 08:50:58;;;;;;;16.20;11.85;;;7.10;81.70;;;;;;5053879;28;20032;-68
2022/12/12 08:53:24;;;;;;;14.90;10.38;;;7.00;82.10;;;;;;5053688;28;20021;-68
2022/12/12 08:55:49;;;;;;;14.70;10.60;;;7.00;82.20;;;;;;5053643;28;20053;-68
2022/12/12 08:58:15;;;;;;;18.15;11.40;;;7.00;82.10;;;;;;5053183;28;20079;-68
2022/12/12 09:00:41;;;;;;;17.02;11.07;;;7.10;82.00;;;;;;5053995;28;20029;-68
2022/12/12 09:03:07;;;;;;;16.77;11.85;;;7.00;82.40;;;;;;5053451;28;20025;-68
2022/12/12 09:05:33;;;;;;;15.95;11.65;;;6.90;82.60;;;;;;5053493;28;20032;-67
2022/12/12 09:07:59;;;;;;;17.95;10.43;;;6.90;82.60;;;;;;5053300;28;20024;-68
2022/12/12 09:10:25;;;;;;;17.42;10.35;;;7.00;82.20;;;;;;5053759;28;20025;-68
2022/12/12 09:12:51;;;;;;;17.60;10.93;;;7.60;82.50;;;;;;5052705;28;20178;-67
2022/12/12 09:15:17;;;;;;;17.17;10.88;;;7.30;81.10;;;;;;5053308;28;20067;-68
2022/12/12 09:17:42;;;;;;;14.10;9.77;;;7.50;80.90;;;;;;5053140;28;20465;-67
2022/12/12 09:20:09;;;;;;;17.48;11.20;;;7.30;81.10;;;;;;5053253;28;20037;-68
2022/12/12 09:22:34;;;;;;;15.50;9.73;;;7.30;81.20;;;;;;5052967;28;20017;-68
2022/12/12 09:25:00;;;;;;;15.77;10.63;;;7.50;81.90;;;;;;5053242;28;20024;-68
2022/12/12 09:27:26;;;;;;;16.45;10.95;;;7.40;80.90;;;;;;5052761;28;20400;-67
2022/12/12 09:29:51;;;;;;;16.52;11.48;;;7.30;81.20;;;;;;5052972;28;20453;-67
2022/12/12 09:32:17;;;;;;;18.42;11.30;;;7.30;81.50;;;;;;5050814;28;20428;-68
2022/12/12 09:34:43;;;;;;;16.77;10.85;;;7.20;81.60;;;;;;5053117;28;20508;-68
2022/12/12 09:37:08;;;;;;;15.77;11.50;;;7.40;81.70;;;;;;5052875;28;20029;-68
2022/12/12 09:39:34;;;;;;;16.77;11.15;;;7.40;81.00;;;;;;5052822;28;20416;-67
2022/12/12 09:42:19;;;;;;;17.33;11.45;;;7.30;81.60;;;;;;5051681;28;20025;-68
2022/12/12 09:44:45;;;;;;;16.05;10.60;;;7.50;81.30;;;;;;5051844;28;20025;-68
2022/12/12 09:47:17;;;;;;;17.73;11.18;;;7.50;80.80;;;;;;5049674;28;20124;-67
2022/12/12 09:49:49;;;;;;;18.73;12.55;;;7.50;80.90;;;;;;5050816;28;20025;-68
2022/12/12 09:52:29;;;;;;;20.65;14.10;;;7.60;80.80;;;;;;5051990;28;20017;-68
2022/12/12 09:54:55;;;;;;;21.25;14.38;;;7.60;79.10;;;;;;5041315;28;20021;-68
2022/12/12 09:57:44;;;;;;;19.13;14.32;;;7.30;79.10;;;;;;5051986;28;20044;-67
2022/12/12 10:00:13;;;;;;;19.35;13.27;;;7.30;79.00;;;;;;5052298;28;20065;-68
2022/12/12 10:02:54;;;;;;;21.98;14.02;;;7.20;79.10;;;;;;5052509;28;20017;-67
2022/12/12 10:05:38;;;;;;;22.85;14.68;;;7.30;79.10;;;;;;5051937;28;20091;-68
2022/12/12 10:08:38;;;;;;;21.15;13.73;;;7.20;79.10;;;;;;5050333;28;20055;-67
2022/12/12 10:11:49;;;;;;;23.52;15.15;;;7.00;79.50;;;;;;5048066;28;20104;-68
2022/12/12 10:14:00;;;;;;;18.95;12.63;;;7.40;79.10;;;;;;5051107;28;20040;-67
2022/12/12 10:16:28;;;;;;;20.40;13.73;;;7.30;78.80;;;;;;5049944;28;20032;-68
2022/12/12 10:19:02;;;;;;;23.02;14.07;;;7.30;79.00;;;;;;5052021;28;20445;-67
2022/12/12 10:21:31;;;;;;;18.02;12.05;;;7.00;79.40;;;;;;5051989;28;20385;-68
2022/12/12 10:24:02;;;;;;;23.65;15.57;;;7.30;80.00;;;;;;5052310;28;20029;-69
2022/12/12 10:26:29;;;;;;;25.00;16.27;;;7.00;79.80;;;;;;5052352;28;20088;-68
2022/12/12 10:29:18;;;;;;;26.50;17.08;;;6.90;79.80;;;;;;5052239;28;20083;-69
2022/12/12 10:32:05;;;;;;;22.67;13.75;;;7.20;80.20;;;;;;5050670;28;20416;-69
2022/12/12 10:34:52;;;;;;;24.13;14.38;;;7.30;80.00;;;;;;5047294;28;20052;-68
2022/12/12 10:37:45;;;;;;;25.88;15.10;;;7.70;79.40;;;;;;5052522;28;20143;-69
2022/12/12 10:40:22;;;;;;;27.45;16.58;;;7.20;79.30;;;;;;5050322;28;20033;-68
2022/12/12 10:42:57;;;;;;;27.20;16.17;;;7.30;79.60;;;;;;5049317;28;20458;-69
2022/12/12 10:45:42;;;;;;;23.75;15.63;;;7.40;80.00;;;;;;5051831;28;20040;-68
2022/12/12 10:48:08;;;;;;;27.02;14.90;;;7.10;79.90;;;;;;5044515;28;20076;-67
2022/12/12 10:50:35;;;;;;;22.25;14.35;;;7.00;80.20;;;;;;5050861;28;20052;-68
2022/12/12 10:53:04;;;;;;;30.80;20.17;;;7.30;80.70;;;;;;5050622;28;20029;-67
2022/12/12 10:55:39;;;;;;;39.45;22.60;;;7.30;80.00;;;;;;5051492;28;20100;-68
2022/12/12 10:58:06;;;;;;;28.02;17.60;;;7.30;79.70;;;;;;5049476;28;20021;-67
2022/12/12 11:00:36;;;;;;;21.80;14.27;;;7.40;79.20;;;;;;5054112;28;20517;-67
2022/12/12 11:03:26;;;;;;;24.35;14.18;;;7.40;80.00;;;;;;5052677;28;20029;-68
2022/12/12 11:05:53;;;;;;;26.10;17.73;;;7.40;80.30;;;;;;5051893;28;20416;-69
2022/12/12 11:08:27;;;;;;;23.02;14.68;;;7.50;80.30;;;;;;5050949;28;20028;-67
2022/12/12 11:11:17;;;;;;;23.02;14.77;;;7.30;79.60;;;;;;5049808;28;20024;-67
2022/12/12 11:13:48;;;;;;;21.05;13.90;;;7.40;80.10;;;;;;5042536;28;20083;-67
2022/12/12 11:16:22;;;;;;;21.27;14.07;;;7.40;80.30;;;;;;5049260;28;20032;-67
2022/12/12 11:18:57;;;;;;;22.02;15.35;;;7.50;79.90;;;;;;5051287;28;20025;-68
2022/12/12 11:21:22;;;;;;;24.48;13.77;;;7.70;79.20;;;;;;5051813;28;20017;-67
2022/12/12 11:23:52;;;;;;;22.73;13.98;;;7.30;80.10;;;;;;5050755;28;20009;-67
2022/12/12 11:26:20;;;;;;;28.40;15.18;;;7.40;80.00;;;;;;5053700;28;20028;-68
2022/12/12 11:29:01;;;;;;;24.90;14.38;;;7.40;80.20;;;;;;5053114;28;20025;-68
2022/12/12 11:31:30;;;;;;;23.50;14.30;;;7.30;81.00;;;;;;5054441;28;20071;-68
2022/12/12 11:33:59;;;;;;;20.55;13.63;;;7.40;82.10;;;;;;5055375;28;20470;-68
2022/12/12 11:36:43;;;;;;;25.98;13.48;;;7.60;82.00;;;;;;5054228;28;20033;-68
2022/12/12 11:39:27;;;;;;;27.95;13.32;;;7.80;82.40;;;;;;5045220;28;20315;-67
2022/12/12 11:42:01;;;;;;;17.75;12.23;;;7.70;82.70;;;;;;5047584;28;20412;-67
2022/12/12 11:44:34;;;;;;;21.83;11.50;;;8.00;83.00;;;;;;5045345;28;20347;-67
2022/12/12 11:47:20;;;;;;;19.45;12.45;;;8.20;84.50;;;;;;5049342;28;20487;-68
2022/12/12 11:49:59;;;;;;;20.30;10.38;;;8.10;83.40;;;;;;5042790;28;20100;-67
2022/12/12 11:52:32;;;;;;;20.67;12.38;;;8.30;86.10;;;;;;5047667;28;20021;-67
2022/12/12 11:54:59;;;;;;;23.45;14.05;;;8.00;83.00;;;;;;5042887;28;20032;-67
2022/12/12 11:57:51;;;;;;;22.48;12.68;;;8.00;83.90;;;;;;5037187;28;20601;-67
2022/12/12 12:00:20;;;;;;;26.92;12.90;;;8.00;83.60;;;;;;5043334;28;20063;-67
2022/12/12 12:03:10;;;;;;;24.08;13.45;;;8.10;84.00;;;;;;5042892;28;20076;-67
2022/12/12 12:06:03;;;;;;;19.38;12.57;;;7.80;82.60;;;;;;5048766;28;20039;-65
2022/12/12 12:08:47;;;;;;;18.65;12.50;;;8.00;83.50;;;;;;5036788;28;20033;-67
2022/12/12 12:11:51;;;;;;;24.25;13.43;;;8.10;83.90;;;;;;5061402;28;20492;-66
2022/12/12 12:14:25;;;;;;;19.67;11.70;;;8.00;83.10;;;;;;5034266;28;20502;-66
2022/12/12 12:17:07;;;;;;;22.80;13.77;;;8.30;84.50;;;;;;5042272;28;20055;-67
2022/12/12 12:20:02;;;;;;;27.45;13.90;;;7.70;82.00;;;;;;5038738;28;20071;-66
2022/12/12 12:22:45;;;;;;;22.02;13.65;;;7.80;82.00;;;;;;5046661;28;20017;-67
2022/12/12 12:26:05;;;;;;;20.02;13.23;;;7.80;82.00;;;;;;5050447;28;20032;-67
2022/12/12 12:28:50;;;;;;;20.08;12.57;;;7.80;81.80;;;;;;5031142;28;20029;-67
2022/12/12 12:31:41;;;;;;;23.00;13.82;;;7.90;82.30;;;;;;5046198;28;20110;-68
2022/12/12 12:34:31;;;;;;;22.65;13.52;;;7.80;81.70;;;;;;5044650;28;20021;-67
2022/12/12 12:37:12;;;;;;;20.42;13.70;;;7.90;81.60;;;;;;5042142;28;20523;-67
2022/12/12 12:39:58;;;;;;;24.63;12.90;;;8.00;80.40;;;;;;5042676;28;20116;-67
2022/12/12 12:42:42;;;;;;;21.65;12.63;;;7.90;82.00;;;;;;5045588;28;20075;-67
2022/12/12 12:45:34;;;;;;;20.35;12.90;;;8.00;82.00;;;;;;5046045;28;20033;-66
2022/12/12 12:48:06;;;;;;;22.50;14.23;;;8.00;81.80;;;;;;5036039;28;20033;-67
2022/12/12 12:50:43;;;;;;;21.20;12.40;;;8.00;82.50;;;;;;5040257;28;20286;-67
2022/12/12 12:53:24;;;;;;;25.73;14.07;;;8.20;83.20;;;;;;5049430;28;20370;-70
2022/12/12 12:55:54;;;;;;;19.38;12.00;;;8.00;81.80;;;;;;5044853;28;20470;-68
2022/12/12 12:58:31;;;;;;;19.85;12.95;;;8.10;82.00;;;;;;5051491;28;20382;-68
2022/12/12 13:01:09;;;;;;;20.75;12.23;;;8.10;84.00;;;;;;5049145;28;20024;-67
2022/12/12 13:04:11;;;;;;;20.45;12.65;;;8.20;83.40;;;;;;5045999;28;20031;-67
2022/12/12 13:07:00;;;;;;;20.63;13.10;;;7.90;82.90;;;;;;5033554;28;20173;-67
2022/12/12 13:09:41;;;;;;;20.42;12.75;;;7.90;83.50;;;;;;5054124;28;20486;-66
2022/12/12 13:12:27;;;;;;;20.73;12.10;;;7.90;83.90;;;;;;5041190;28;20191;-69
2022/12/12 13:15:13;;;;;;;19.00;12.20;;;8.10;83.70;;;;;;5042846;28;20037;-67